Time;durP1;ratioP1;P1;durP2;ratioP2;P2;SDS_P1;SDS_P2;PMS_P1;PMS_P2;Temp;Humidity;BMP_temperature;BMP_pressure;BME280_temperature;BME280_humidity;BME280_pressure;Samples;Min_cycle;Max_cycle;Signal;HPM_P1;HPM_P2
2023/02/28 00:01:26;;;;;;;20.17;18.50;;;1.20;99.90;;;;;;5020994;28;20185;-43
2023/02/28 00:03:52;;;;;;;18.70;17.20;;;1.20;99.90;;;;;;5021777;28;20220;-47
2023/02/28 00:06:18;;;;;;;19.37;17.87;;;1.20;99.90;;;;;;5021696;28;20428;-45
2023/02/28 00:08:43;;;;;;;18.77;17.33;;;1.20;99.90;;;;;;5022196;28;20691;-44
2023/02/28 00:11:11;;;;;;;19.23;17.73;;;1.20;99.90;;;;;;5021225;28;20192;-43
2023/02/28 00:13:40;;;;;;;18.25;16.77;;;1.20;99.90;;;;;;5021351;28;20476;-43
2023/02/28 00:16:09;;;;;;;18.80;17.50;;;1.10;99.90;;;;;;5020328;28;20193;-46
2023/02/28 00:18:34;;;;;;;19.27;17.77;;;1.20;99.90;;;;;;5020051;28;20213;-43
2023/02/28 00:21:00;;;;;;;17.77;16.40;;;1.20;99.90;;;;;;5021678;28;20181;-42
2023/02/28 00:23:26;;;;;;;19.47;17.87;;;1.20;99.90;;;;;;5020744;28;20184;-42
2023/02/28 00:25:52;;;;;;;18.70;17.25;;;1.10;99.90;;;;;;5021463;28;20197;-45
2023/02/28 00:28:18;;;;;;;18.80;17.40;;;1.10;99.90;;;;;;5020114;28;20186;-42
2023/02/28 00:30:44;;;;;;;17.80;16.50;;;1.10;99.90;;;;;;5020796;28;20209;-41
2023/02/28 00:33:10;;;;;;;17.97;16.70;;;1.10;99.90;;;;;;5020412;28;21198;-42
2023/02/28 00:35:35;;;;;;;18.70;17.20;;;1.10;99.90;;;;;;5020326;28;20678;-42
2023/02/28 00:38:01;;;;;;;17.83;16.50;;;1.00;99.90;;;;;;5020211;28;20234;-45
2023/02/28 00:40:27;;;;;;;17.87;16.57;;;1.10;99.90;;;;;;5020859;28;20219;-45
2023/02/28 00:42:52;;;;;;;18.30;17.00;;;1.10;99.90;;;;;;5019261;28;20195;-45
2023/02/28 00:45:18;;;;;;;18.63;17.27;;;1.00;99.90;;;;;;5020707;28;20193;-42
2023/02/28 00:47:46;;;;;;;17.88;16.60;;;1.00;99.90;;;;;;5019919;28;20201;-41
2023/02/28 00:50:12;;;;;;;19.33;17.73;;;1.10;99.90;;;;;;5020149;28;20625;-43
2023/02/28 00:52:37;;;;;;;17.70;16.27;;;1.00;99.90;;;;;;5020246;28;20195;-43
2023/02/28 00:55:04;;;;;;;19.50;17.93;;;1.00;99.90;;;;;;5018967;28;20655;-43
2023/02/28 00:57:29;;;;;;;19.70;18.15;;;1.00;99.90;;;;;;5019638;28;20184;-48
2023/02/28 00:59:55;;;;;;;18.33;17.03;;;1.00;99.90;;;;;;5019873;28;20276;-47
2023/02/28 01:02:22;;;;;;;19.87;18.17;;;1.00;99.90;;;;;;5020688;28;20583;-43
2023/02/28 01:04:48;;;;;;;19.30;17.83;;;1.00;99.90;;;;;;5017052;28;20190;-42
2023/02/28 01:07:14;;;;;;;20.17;18.57;;;0.90;99.90;;;;;;5020256;28;20199;-42
2023/02/28 01:09:40;;;;;;;19.00;17.60;;;0.90;99.90;;;;;;5019366;28;20525;-40
2023/02/28 01:12:07;;;;;;;18.85;17.45;;;0.90;99.90;;;;;;5019802;28;20751;-43
2023/02/28 01:14:34;;;;;;;19.40;17.88;;;0.80;99.90;;;;;;5018458;28;20617;-42
2023/02/28 01:17:00;;;;;;;18.85;17.30;;;0.80;99.90;;;;;;5020553;28;21026;-41
2023/02/28 01:19:25;;;;;;;18.73;17.43;;;0.90;99.90;;;;;;5019130;28;20295;-42
2023/02/28 01:21:51;;;;;;;19.17;17.67;;;0.90;99.90;;;;;;5019498;28;20432;-43
2023/02/28 01:24:17;;;;;;;18.93;17.50;;;0.90;99.90;;;;;;5019436;28;20269;-42
2023/02/28 01:26:42;;;;;;;18.60;17.20;;;0.90;99.90;;;;;;5019622;28;20681;-43
2023/02/28 01:29:08;;;;;;;19.27;17.87;;;0.90;99.90;;;;;;5019327;28;20181;-44
2023/02/28 01:31:34;;;;;;;18.03;16.80;;;0.90;99.90;;;;;;5017560;28;20646;-43
2023/02/28 01:33:59;;;;;;;19.33;17.77;;;0.80;99.90;;;;;;5019247;28;20215;-44
2023/02/28 01:36:26;;;;;;;19.63;17.93;;;0.80;99.90;;;;;;5019485;28;20188;-44
2023/02/28 01:38:51;;;;;;;19.20;17.65;;;0.80;99.90;;;;;;5019137;28;20950;-44
2023/02/28 01:41:29;;;;;;;18.90;17.40;;;0.80;99.90;;;;;;5019798;28;20198;-42
2023/02/28 01:43:58;;;;;;;20.20;18.70;;;0.80;99.90;;;;;;5018980;28;20192;-43
2023/02/28 01:46:24;;;;;;;20.17;18.63;;;0.70;99.90;;;;;;5019010;28;20187;-44
2023/02/28 01:49:14;;;;;;;20.37;18.57;;;0.70;99.90;;;;;;5020175;28;20314;-45
2023/02/28 01:51:51;;;;;;;20.75;18.95;;;0.70;99.90;;;;;;5017621;28;20197;-44
2023/02/28 01:54:23;;;;;;;20.55;18.95;;;0.70;99.90;;;;;;5019264;28;20185;-43
2023/02/28 01:56:58;;;;;;;19.75;18.05;;;0.70;99.90;;;;;;5017657;28;20199;-43
2023/02/28 01:59:46;;;;;;;19.23;17.70;;;0.60;99.90;;;;;;5018235;28;20219;-44
2023/02/28 02:02:12;;;;;;;20.05;18.35;;;0.60;99.90;;;;;;5019073;28;20193;-44
2023/02/28 02:04:46;;;;;;;20.17;18.48;;;0.50;99.90;;;;;;5019264;28;20184;-41
2023/02/28 02:07:13;;;;;;;20.00;18.35;;;0.50;99.90;;;;;;5018321;28;20189;-42
2023/02/28 02:09:39;;;;;;;20.38;18.65;;;0.50;99.90;;;;;;5019174;28;20208;-44
2023/02/28 02:12:31;;;;;;;20.17;18.47;;;0.50;99.90;;;;;;5018337;28;20203;-42
2023/02/28 02:15:02;;;;;;;20.00;18.40;;;0.50;99.90;;;;;;4997476;28;20207;-43
2023/02/28 02:17:41;;;;;;;19.88;18.20;;;0.50;99.90;;;;;;5019011;28;20270;-48
2023/02/28 02:20:22;;;;;;;19.73;18.17;;;0.50;99.90;;;;;;5018584;28;20186;-45
2023/02/28 02:23:03;;;;;;;19.27;17.83;;;0.50;99.90;;;;;;5019042;28;20816;-44
2023/02/28 02:25:32;;;;;;;18.98;17.48;;;0.50;99.90;;;;;;5018337;28;20185;-45
2023/02/28 02:28:17;;;;;;;19.83;18.23;;;0.50;99.90;;;;;;5018410;28;20185;-45
2023/02/28 02:31:07;;;;;;;20.98;19.23;;;0.50;99.90;;;;;;5019111;28;20180;-44
2023/02/28 02:34:03;;;;;;;20.60;18.90;;;0.50;99.90;;;;;;5017554;28;20185;-44
2023/02/28 02:36:52;;;;;;;20.33;18.52;;;0.50;99.90;;;;;;5018599;28;20203;-42
2023/02/28 02:39:49;;;;;;;20.40;18.80;;;0.50;99.90;;;;;;5012997;28;20239;-43
2023/02/28 02:42:23;;;;;;;19.60;17.98;;;0.50;99.90;;;;;;5018435;28;20581;-42
2023/02/28 02:44:59;;;;;;;19.83;18.02;;;0.50;99.90;;;;;;5018276;28;20232;-43
2023/02/28 02:47:29;;;;;;;20.02;18.38;;;0.50;99.90;;;;;;5018020;28;20183;-42
2023/02/28 02:49:58;;;;;;;19.75;18.08;;;0.50;99.90;;;;;;5018375;28;20185;-46
2023/02/28 02:52:34;;;;;;;20.05;18.25;;;0.50;99.90;;;;;;5017807;28;20223;-43
2023/02/28 02:55:01;;;;;;;21.02;19.30;;;0.50;99.90;;;;;;5018786;28;20529;-43
2023/02/28 02:57:38;;;;;;;20.52;18.92;;;0.50;99.90;;;;;;5017654;28;20601;-44
2023/02/28 03:00:08;;;;;;;20.85;19.02;;;0.50;99.90;;;;;;5018927;28;20610;-43
2023/02/28 03:02:36;;;;;;;21.60;19.80;;;0.40;99.90;;;;;;5017783;28;20183;-42
2023/02/28 03:05:14;;;;;;;21.88;20.08;;;0.40;99.90;;;;;;5016986;28;20225;-42
2023/02/28 03:07:40;;;;;;;20.70;19.20;;;0.40;99.90;;;;;;5019027;28;20192;-47
2023/02/28 03:10:34;;;;;;;22.60;20.70;;;0.40;99.90;;;;;;5022313;28;20188;-47
2023/02/28 03:13:26;;;;;;;24.00;21.77;;;0.40;99.90;;;;;;5022745;28;20275;-44
2023/02/28 03:16:15;;;;;;;22.20;20.45;;;0.30;99.90;;;;;;5021370;28;20233;-43
2023/02/28 03:19:06;;;;;;;22.60;20.70;;;0.30;99.90;;;;;;5021885;28;20204;-42
2023/02/28 03:21:55;;;;;;;22.58;20.42;;;0.30;99.90;;;;;;5021660;28;20179;-44
2023/02/28 03:24:49;;;;;;;22.30;20.55;;;0.20;99.90;;;;;;5022504;28;20176;-42
2023/02/28 03:27:24;;;;;;;22.48;20.48;;;0.20;99.90;;;;;;5020677;28;20530;-45
2023/02/28 03:30:17;;;;;;;21.02;19.33;;;0.20;99.90;;;;;;5021965;28;20414;-46
2023/02/28 03:32:56;;;;;;;23.35;21.45;;;0.10;99.90;;;;;;5022327;28;20197;-46
2023/02/28 03:35:26;;;;;;;22.55;20.35;;;0.00;99.90;;;;;;5020661;28;20713;-45
2023/02/28 03:38:05;;;;;;;22.42;20.58;;;0.00;99.90;;;;;;5022402;28;20508;-47
2023/02/28 03:40:34;;;;;;;21.75;19.98;;;-0.10;99.90;;;;;;5022484;28;20179;-44
2023/02/28 03:43:09;;;;;;;23.08;21.08;;;-0.10;99.90;;;;;;5021744;28;20187;-44
2023/02/28 03:45:37;;;;;;;22.95;21.05;;;-0.20;99.90;;;;;;5021449;28;20228;-48
2023/02/28 03:48:09;;;;;;;24.00;21.90;;;-0.30;99.90;;;;;;5020830;28;20237;-43
2023/02/28 03:50:41;;;;;;;23.27;20.88;;;-0.40;99.90;;;;;;5021803;28;20290;-43
2023/02/28 03:53:14;;;;;;;24.63;22.27;;;-0.50;99.90;;;;;;5022095;28;20186;-43
2023/02/28 03:55:45;;;;;;;23.63;21.70;;;-0.50;99.90;;;;;;5020242;28;20222;-44
2023/02/28 03:58:35;;;;;;;22.20;20.35;;;-0.60;99.90;;;;;;5020871;28;20204;-43
2023/02/28 04:01:09;;;;;;;23.30;21.08;;;-0.70;99.90;;;;;;5020469;28;20601;-42
2023/02/28 04:03:39;;;;;;;22.83;20.83;;;-0.80;99.90;;;;;;5021518;28;20208;-41
2023/02/28 04:06:08;;;;;;;23.63;21.42;;;-0.80;99.90;;;;;;5021147;28;20256;-43
2023/02/28 04:08:33;;;;;;;22.73;20.52;;;-0.90;99.90;;;;;;5021670;28;20206;-42
2023/02/28 04:11:19;;;;;;;23.57;21.60;;;-1.00;99.90;;;;;;5021014;28;20277;-42
2023/02/28 04:13:45;;;;;;;23.85;21.58;;;-1.00;99.90;;;;;;5021452;28;20548;-44
2023/02/28 04:16:12;;;;;;;23.87;21.70;;;-1.10;99.90;;;;;;5021316;28;20676;-42
2023/02/28 04:18:42;;;;;;;23.83;21.42;;;-1.20;99.90;;;;;;5019972;28;20219;-42
2023/02/28 04:21:09;;;;;;;22.75;20.75;;;-1.30;99.90;;;;;;5020797;28;20182;-47
2023/02/28 04:23:35;;;;;;;22.77;20.58;;;-1.30;99.90;;;;;;5021295;28;20538;-42
2023/02/28 04:26:01;;;;;;;22.90;20.60;;;-1.40;99.90;;;;;;5020532;28;20187;-41
2023/02/28 04:28:26;;;;;;;23.33;21.23;;;-1.40;99.90;;;;;;5019715;28;20676;-44
2023/02/28 04:31:03;;;;;;;21.57;19.57;;;-1.50;99.90;;;;;;5021449;28;20766;-42
2023/02/28 04:33:31;;;;;;;23.75;21.55;;;-1.50;99.90;;;;;;5021340;28;20483;-41
2023/02/28 04:36:04;;;;;;;23.58;21.08;;;-1.50;99.90;;;;;;5020710;28;20548;-41
2023/02/28 04:38:34;;;;;;;23.23;20.92;;;-1.60;99.90;;;;;;5020948;28;20738;-42
2023/02/28 04:41:00;;;;;;;23.05;20.95;;;-1.60;99.90;;;;;;5021396;28;20183;-43
2023/02/28 04:43:27;;;;;;;23.25;20.95;;;-1.70;99.90;;;;;;5020900;28;20614;-45
2023/02/28 04:45:56;;;;;;;22.73;20.25;;;-1.70;99.90;;;;;;5020942;28;20497;-42
2023/02/28 04:48:23;;;;;;;22.73;20.52;;;-1.70;99.90;;;;;;5020619;28;20187;-41
2023/02/28 04:50:49;;;;;;;24.00;21.70;;;-1.70;99.90;;;;;;5021159;28;20186;-44
2023/02/28 04:53:14;;;;;;;23.10;20.80;;;-1.80;99.90;;;;;;5020379;28;20638;-43
2023/02/28 04:55:40;;;;;;;23.87;21.23;;;-1.80;99.90;;;;;;5019286;28;20560;-42
2023/02/28 04:58:06;;;;;;;24.57;22.10;;;-1.80;99.90;;;;;;5017859;28;20241;-43
2023/02/28 05:00:31;;;;;;;23.03;20.83;;;-1.90;99.90;;;;;;5019846;28;20241;-41
2023/02/28 05:02:57;;;;;;;23.90;21.50;;;-1.90;99.90;;;;;;5020175;28;20336;-41
2023/02/28 05:05:22;;;;;;;23.73;20.50;;;-2.00;99.90;;;;;;5019430;28;20532;-42
2023/02/28 05:07:48;;;;;;;24.83;22.23;;;-1.90;99.90;;;;;;5018664;28;20229;-43
2023/02/28 05:10:13;;;;;;;25.37;22.87;;;-2.00;99.90;;;;;;5020056;28;20557;-43
2023/02/28 05:12:39;;;;;;;25.67;23.13;;;-2.10;99.90;;;;;;5019354;28;20508;-42
2023/02/28 05:15:05;;;;;;;27.50;24.60;;;-2.10;99.90;;;;;;5020340;28;20191;-41
2023/02/28 05:17:31;;;;;;;27.08;24.15;;;-2.10;99.90;;;;;;5017269;28;20544;-42
2023/02/28 05:19:57;;;;;;;29.70;23.30;;;-2.10;99.90;;;;;;5018815;28;20289;-43
2023/02/28 05:22:22;;;;;;;27.10;24.50;;;-2.20;99.90;;;;;;5019465;28;20179;-44
2023/02/28 05:24:48;;;;;;;24.70;22.20;;;-2.10;99.90;;;;;;5019974;28;20774;-42
2023/02/28 05:27:13;;;;;;;26.97;24.17;;;-2.10;99.90;;;;;;5018556;28;20569;-43
2023/02/28 05:29:45;;;;;;;27.67;24.87;;;-2.10;99.90;;;;;;5018728;28;21278;-43
2023/02/28 05:32:12;;;;;;;24.77;22.13;;;-2.10;99.90;;;;;;5019630;28;20637;-42
2023/02/28 05:34:40;;;;;;;24.33;21.98;;;-2.10;99.90;;;;;;5017750;28;20189;-42
2023/02/28 05:37:11;;;;;;;25.15;22.45;;;-2.10;99.90;;;;;;5020145;28;20194;-42
2023/02/28 05:39:37;;;;;;;25.20;22.63;;;-2.20;99.90;;;;;;5019590;28;20198;-41
2023/02/28 05:42:02;;;;;;;27.20;24.30;;;-2.20;99.90;;;;;;5019831;28;20209;-41
2023/02/28 05:44:28;;;;;;;26.70;24.10;;;-2.20;99.90;;;;;;5019644;28;20499;-42
2023/02/28 05:46:54;;;;;;;26.90;24.00;;;-2.20;99.90;;;;;;5019513;28;20254;-42
2023/02/28 05:49:19;;;;;;;27.37;23.80;;;-2.20;99.90;;;;;;5019860;28;20222;-42
2023/02/28 05:51:45;;;;;;;26.37;23.77;;;-2.20;99.90;;;;;;5020391;28;20785;-42
2023/02/28 05:54:11;;;;;;;29.50;24.60;;;-2.30;99.90;;;;;;5020048;28;20194;-44
2023/02/28 05:56:39;;;;;;;27.17;24.30;;;-2.30;99.90;;;;;;5018807;28;21213;-42
2023/02/28 05:59:05;;;;;;;27.10;23.55;;;-2.30;99.90;;;;;;5018289;28;20287;-43
2023/02/28 06:01:37;;;;;;;25.73;23.13;;;-2.40;99.90;;;;;;5018175;28;20300;-41
2023/02/28 06:04:05;;;;;;;27.17;23.85;;;-2.40;99.90;;;;;;5019585;28;20236;-42
2023/02/28 06:06:30;;;;;;;26.55;23.83;;;-2.50;99.90;;;;;;5018357;28;20560;-42
2023/02/28 06:08:56;;;;;;;27.30;24.60;;;-2.50;99.90;;;;;;5019540;28;20193;-43
2023/02/28 06:11:26;;;;;;;26.98;24.10;;;-2.50;99.90;;;;;;5019875;28;20841;-42
2023/02/28 06:13:55;;;;;;;28.70;25.73;;;-2.50;99.90;;;;;;5018909;28;20238;-43
2023/02/28 06:16:21;;;;;;;34.67;29.02;;;-2.50;99.90;;;;;;5019532;28;20201;-42
2023/02/28 06:18:46;;;;;;;30.50;26.07;;;-2.50;99.90;;;;;;5018148;28;20823;-42
2023/02/28 06:21:16;;;;;;;26.57;23.77;;;-2.50;99.90;;;;;;5019801;28;20421;-42
2023/02/28 06:23:41;;;;;;;25.83;23.25;;;-2.50;99.90;;;;;;5019663;28;20383;-49
2023/02/28 06:26:07;;;;;;;25.33;22.63;;;-2.50;99.90;;;;;;5019253;28;20503;-43
2023/02/28 06:28:32;;;;;;;27.77;22.00;;;-2.50;99.90;;;;;;5019427;28;20178;-43
2023/02/28 06:30:58;;;;;;;26.23;23.60;;;-2.50;99.90;;;;;;5019467;28;20187;-41
2023/02/28 06:33:25;;;;;;;28.43;24.37;;;-2.50;99.90;;;;;;5019750;28;20607;-42
2023/02/28 06:35:51;;;;;;;30.42;27.13;;;-2.50;99.90;;;;;;5018371;28;20244;-42
2023/02/28 06:38:18;;;;;;;28.20;25.17;;;-2.40;99.90;;;;;;5019493;28;20213;-41
2023/02/28 06:40:44;;;;;;;26.67;23.90;;;-2.40;99.90;;;;;;5019460;28;20182;-40
2023/02/28 06:43:13;;;;;;;29.73;24.23;;;-2.40;99.90;;;;;;5022689;28;20228;-42
2023/02/28 06:45:42;;;;;;;30.05;25.10;;;-2.40;99.90;;;;;;5021742;28;20596;-43
2023/02/28 06:48:07;;;;;;;26.27;23.45;;;-2.30;99.90;;;;;;5021861;28;20183;-42
2023/02/28 06:50:33;;;;;;;26.63;22.40;;;-2.30;99.90;;;;;;5023462;28;20179;-42
2023/02/28 06:52:58;;;;;;;25.47;23.00;;;-2.20;99.90;;;;;;5022185;28;20726;-42
2023/02/28 06:55:24;;;;;;;24.20;21.87;;;-2.10;99.90;;;;;;5022697;28;20181;-46
2023/02/28 06:57:50;;;;;;;27.50;24.40;;;-2.00;99.90;;;;;;5023482;28;20210;-42
2023/02/28 07:00:16;;;;;;;35.85;28.60;;;-1.90;99.90;;;;;;5022763;28;20184;-44
2023/02/28 07:02:42;;;;;;;32.73;27.53;;;-1.70;99.90;;;;;;5022805;28;20560;-42
2023/02/28 07:05:08;;;;;;;26.53;23.83;;;-1.60;99.90;;;;;;5023024;28;20455;-49
2023/02/28 07:07:36;;;;;;;28.52;23.70;;;-1.40;99.90;;;;;;5023166;28;20508;-43
2023/02/28 07:10:01;;;;;;;25.63;22.70;;;-1.20;99.90;;;;;;5022744;28;20629;-41
2023/02/28 07:12:27;;;;;;;25.40;21.87;;;-1.10;99.90;;;;;;5022899;28;20244;-45
2023/02/28 07:14:54;;;;;;;23.53;21.07;;;-0.90;99.90;;;;;;5021972;28;20187;-41
2023/02/28 07:17:19;;;;;;;26.42;22.05;;;-0.80;99.90;;;;;;5022165;28;20182;-42
2023/02/28 07:19:59;;;;;;;26.23;23.50;;;-0.60;99.90;;;;;;4955218;28;21164;-43
2023/02/28 07:22:24;;;;;;;25.07;22.50;;;-0.50;99.90;;;;;;4954065;28;20324;-42
2023/02/28 07:24:50;;;;;;;23.77;21.37;;;-0.60;99.90;;;;;;4954986;28;20618;-44
2023/02/28 07:27:23;;;;;;;24.20;20.30;;;-0.70;99.90;;;;;;4955376;28;20274;-41
2023/02/28 07:29:49;;;;;;;23.60;21.35;;;-0.70;99.90;;;;;;4955041;28;20326;-42
2023/02/28 07:32:15;;;;;;;23.00;20.75;;;-0.60;99.90;;;;;;4955179;28;20195;-43
2023/02/28 07:34:41;;;;;;;22.97;20.77;;;-0.50;99.90;;;;;;4954869;28;20194;-42
2023/02/28 07:37:06;;;;;;;23.93;21.63;;;-0.50;99.90;;;;;;4955358;28;20517;-42
2023/02/28 07:39:32;;;;;;;22.03;20.03;;;-0.60;99.90;;;;;;4955339;28;20312;-44
2023/02/28 07:41:59;;;;;;;21.10;18.83;;;-0.60;99.90;;;;;;4954783;28;20194;-41
2023/02/28 07:44:25;;;;;;;21.58;19.35;;;-0.60;99.90;;;;;;4954416;28;20302;-42
2023/02/28 07:46:51;;;;;;;20.60;18.52;;;-0.60;99.90;;;;;;4954024;28;20196;-41
2023/02/28 07:49:16;;;;;;;21.67;19.57;;;-0.50;99.90;;;;;;4954810;28;21338;-41
2023/02/28 07:51:42;;;;;;;21.27;19.07;;;-0.40;99.90;;;;;;4954689;28;20178;-45
2023/02/28 07:54:07;;;;;;;24.20;21.80;;;-0.40;99.90;;;;;;4954869;28;20191;-43
2023/02/28 07:56:33;;;;;;;22.10;20.00;;;-0.30;99.90;;;;;;4954632;28;20192;-44
2023/02/28 07:58:59;;;;;;;22.97;20.70;;;-0.10;99.90;;;;;;4954783;28;20188;-43
2023/02/28 08:01:24;;;;;;;23.37;20.63;;;0.00;99.90;;;;;;4954584;28;20206;-42
2023/02/28 08:03:50;;;;;;;23.97;20.77;;;0.10;99.90;;;;;;4954752;28;20203;-46
2023/02/28 08:06:21;;;;;;;23.10;20.73;;;0.20;99.90;;;;;;4954503;28;21233;-44
2023/02/28 08:08:48;;;;;;;23.05;20.65;;;0.30;99.90;;;;;;4954280;28;20208;-42
2023/02/28 08:11:14;;;;;;;23.15;20.10;;;0.40;99.90;;;;;;4955502;28;20196;-42
2023/02/28 08:13:42;;;;;;;24.50;22.00;;;0.70;99.90;;;;;;4953970;28;20295;-43
2023/02/28 08:16:07;;;;;;;23.80;21.40;;;0.80;99.90;;;;;;4954247;28;20499;-44
2023/02/28 08:18:33;;;;;;;22.70;20.33;;;0.90;99.90;;;;;;4954149;28;20578;-44
2023/02/28 08:20:59;;;;;;;23.80;21.53;;;1.10;99.90;;;;;;4952753;28;20200;-42
2023/02/28 08:23:25;;;;;;;22.38;20.38;;;1.50;99.90;;;;;;4952717;28;20488;-43
2023/02/28 08:25:55;;;;;;;22.73;20.53;;;1.80;99.90;;;;;;4954102;28;20189;-45
2023/02/28 08:28:21;;;;;;;22.60;20.40;;;2.10;99.90;;;;;;4954087;28;20289;-42
2023/02/28 08:30:47;;;;;;;23.85;21.45;;;2.40;99.90;;;;;;4944159;28;20239;-43
2023/02/28 08:33:12;;;;;;;21.80;19.53;;;2.70;99.90;;;;;;4941226;29;20190;-45
2023/02/28 08:35:38;;;;;;;23.87;21.57;;;2.80;99.90;;;;;;4941017;28;20647;-41
2023/02/28 08:38:03;;;;;;;20.70;18.77;;;2.60;99.90;;;;;;4941158;28;20193;-43
2023/02/28 08:40:29;;;;;;;22.70;20.37;;;2.70;99.90;;;;;;4941159;29;20196;-43
2023/02/28 08:42:55;;;;;;;23.00;20.90;;;2.80;99.90;;;;;;4941234;29;20659;-41
2023/02/28 08:45:20;;;;;;;22.13;20.03;;;3.10;99.90;;;;;;4941352;28;20489;-46
2023/02/28 08:47:46;;;;;;;24.03;21.63;;;3.10;99.90;;;;;;4941010;28;20770;-44
2023/02/28 08:50:14;;;;;;;22.67;20.50;;;3.20;99.90;;;;;;4941066;29;20194;-43
2023/02/28 08:52:43;;;;;;;22.38;20.40;;;3.40;99.90;;;;;;4941196;28;20667;-43
2023/02/28 08:55:09;;;;;;;22.52;20.25;;;3.50;99.90;;;;;;4941259;29;20723;-44
2023/02/28 08:57:34;;;;;;;22.63;20.40;;;3.60;99.90;;;;;;4939569;28;20527;-42
2023/02/28 09:00:04;;;;;;;23.00;20.60;;;4.10;99.90;;;;;;4942287;28;20184;-44
2023/02/28 09:02:33;;;;;;;24.00;21.90;;;4.30;99.90;;;;;;4939812;29;20254;-46
2023/02/28 09:04:58;;;;;;;21.85;20.05;;;4.80;99.10;;;;;;4940717;29;20231;-45
2023/02/28 09:07:25;;;;;;;23.03;21.13;;;5.20;96.80;;;;;;4940984;29;20726;-44
2023/02/28 09:09:53;;;;;;;22.25;20.20;;;5.60;96.00;;;;;;4941123;28;20240;-47
2023/02/28 09:12:21;;;;;;;23.07;21.10;;;6.00;95.00;;;;;;4941333;29;20535;-41
2023/02/28 09:14:46;;;;;;;24.07;22.07;;;6.50;93.30;;;;;;4940886;29;20942;-47
2023/02/28 09:17:12;;;;;;;22.47;20.27;;;7.10;91.30;;;;;;4940763;28;20422;-42
2023/02/28 09:19:37;;;;;;;22.50;20.60;;;7.50;87.70;;;;;;4940502;29;20231;-44
2023/02/28 09:22:03;;;;;;;20.13;18.50;;;8.10;82.50;;;;;;4940514;29;20646;-49
2023/02/28 09:24:31;;;;;;;21.63;19.73;;;8.30;70.50;;;;;;4940410;28;20249;-45
2023/02/28 09:26:57;;;;;;;20.97;18.97;;;8.70;71.60;;;;;;4939442;29;20194;-43
2023/02/28 09:29:22;;;;;;;20.50;19.00;;;9.10;67.40;;;;;;4940623;28;20471;-48
2023/02/28 09:31:48;;;;;;;21.07;19.17;;;9.50;65.90;;;;;;4940448;29;20185;-44
2023/02/28 09:34:14;;;;;;;22.10;20.50;;;10.20;61.30;;;;;;4940379;28;20198;-43
2023/02/28 09:36:39;;;;;;;20.40;18.67;;;10.20;57.70;;;;;;4940141;29;20193;-43
2023/02/28 09:39:06;;;;;;;19.70;18.20;;;10.10;55.80;;;;;;4938953;28;20189;-45
2023/02/28 09:41:49;;;;;;;20.07;18.57;;;9.80;52.60;;;;;;4939044;28;20213;-45
2023/02/28 09:44:39;;;;;;;21.07;19.60;;;10.10;52.30;;;;;;4940557;29;20419;-44
2023/02/28 09:47:44;;;;;;;18.37;17.00;;;10.10;49.80;;;;;;4940442;29;20471;-44
2023/02/28 09:50:36;;;;;;;20.43;18.90;;;10.80;49.10;;;;;;4916914;28;20491;-49
2023/02/28 09:53:26;;;;;;;20.37;18.87;;;10.90;45.90;;;;;;4940314;29;20435;-43
2023/02/28 09:56:06;;;;;;;18.27;16.87;;;11.70;46.50;;;;;;4940193;29;20475;-45
2023/02/28 09:58:53;;;;;;;19.33;17.80;;;11.60;43.00;;;;;;4940253;28;20649;-42
2023/02/28 10:01:35;;;;;;;19.43;18.00;;;10.80;42.60;;;;;;4940034;29;20556;-43
2023/02/28 10:04:16;;;;;;;20.23;18.73;;;11.20;42.00;;;;;;4940127;29;20502;-43
2023/02/28 10:06:49;;;;;;;21.33;19.70;;;11.60;43.70;;;;;;4938573;29;20435;-45
2023/02/28 10:09:23;;;;;;;20.70;19.20;;;11.70;44.60;;;;;;4939551;29;20464;-43
2023/02/28 10:11:52;;;;;;;19.63;18.23;;;11.90;41.40;;;;;;4940014;29;20455;-47
2023/02/28 10:14:29;;;;;;;21.20;19.67;;;11.80;42.90;;;;;;4940044;29;20516;-46
2023/02/28 10:16:59;;;;;;;20.40;18.90;;;12.50;41.10;;;;;;4939697;28;20420;-46
2023/02/28 10:19:42;;;;;;;20.57;19.07;;;13.30;40.40;;;;;;4939484;28;20522;-47
2023/02/28 10:22:51;;;;;;;21.87;20.27;;;13.30;40.10;;;;;;4939639;28;20946;-45
2023/02/28 10:25:26;;;;;;;21.87;20.17;;;12.20;38.30;;;;;;4939372;29;20485;-49
2023/02/28 10:28:13;;;;;;;22.40;20.80;;;12.20;38.40;;;;;;4939496;29;20432;-45
2023/02/28 10:30:59;;;;;;;22.20;20.60;;;11.90;37.60;;;;;;4939604;28;20956;-45
2023/02/28 10:33:35;;;;;;;22.00;20.33;;;12.70;41.10;;;;;;4939523;28;20931;-42
2023/02/28 10:36:03;;;;;;;21.23;19.63;;;13.60;40.90;;;;;;4939390;28;20544;-42
2023/02/28 10:38:34;;;;;;;20.17;18.57;;;14.10;37.70;;;;;;4939557;29;20763;-45
2023/02/28 10:41:11;;;;;;;21.57;19.97;;;14.60;35.70;;;;;;4939645;29;20467;-42
2023/02/28 10:43:38;;;;;;;22.20;20.70;;;15.30;36.40;;;;;;4939376;28;20933;-45
2023/02/28 10:46:15;;;;;;;22.43;20.83;;;15.70;35.10;;;;;;4939635;28;20529;-44
2023/02/28 10:48:59;;;;;;;19.83;18.43;;;16.00;34.40;;;;;;4938886;29;20500;-46
2023/02/28 10:51:25;;;;;;;20.30;19.00;;;15.50;30.20;;;;;;4939655;29;20898;-45
2023/02/28 10:53:55;;;;;;;21.47;19.93;;;15.50;31.30;;;;;;4939607;28;20451;-43
2023/02/28 10:56:24;;;;;;;22.27;20.67;;;14.30;30.10;;;;;;4939051;28;20288;-45
2023/02/28 10:59:02;;;;;;;20.80;19.20;;;13.60;31.70;;;;;;4939529;28;20435;-43
2023/02/28 11:01:39;;;;;;;21.17;19.67;;;13.70;34.10;;;;;;4931985;28;20451;-45
2023/02/28 11:04:29;;;;;;;19.50;18.00;;;14.40;33.50;;;;;;4939083;28;20455;-45
2023/02/28 11:07:18;;;;;;;21.27;19.77;;;14.60;33.10;;;;;;4938992;29;20421;-48
2023/02/28 11:09:53;;;;;;;21.20;19.80;;;14.90;32.30;;;;;;4938770;28;20471;-48
2023/02/28 11:12:41;;;;;;;21.47;19.93;;;15.10;29.50;;;;;;4939124;29;20442;-46
2023/02/28 11:15:28;;;;;;;22.50;20.80;;;15.20;30.20;;;;;;4939056;29;20823;-45
2023/02/28 11:18:19;;;;;;;21.83;20.40;;;15.30;31.40;;;;;;4938000;28;20472;-44
2023/02/28 11:20:49;;;;;;;20.80;19.40;;;15.70;30.00;;;;;;4939555;28;20908;-47
2023/02/28 11:23:16;;;;;;;21.83;20.33;;;15.90;29.60;;;;;;4938482;29;20515;-45
2023/02/28 11:25:50;;;;;;;21.37;19.77;;;15.90;29.90;;;;;;4939851;28;20428;-43
2023/02/28 11:28:31;;;;;;;20.73;19.37;;;15.90;29.90;;;;;;4931370;29;20479;-46
2023/02/28 11:31:03;;;;;;;21.33;19.83;;;16.10;30.00;;;;;;4938619;29;20915;-46
2023/02/28 11:33:41;;;;;;;21.10;19.60;;;15.60;31.20;;;;;;4938887;28;20444;-43
2023/02/28 11:36:28;;;;;;;21.63;19.93;;;15.20;28.10;;;;;;4939350;28;20926;-47
2023/02/28 11:38:57;;;;;;;22.13;20.50;;;14.50;29.20;;;;;;4938605;29;20495;-43
2023/02/28 11:41:47;;;;;;;22.33;20.83;;;13.90;29.50;;;;;;4938929;29;20500;-47
2023/02/28 11:44:28;;;;;;;22.10;20.60;;;14.00;30.40;;;;;;4937655;28;20441;-43
2023/02/28 11:47:04;;;;;;;20.47;18.97;;;14.10;31.10;;;;;;4938651;28;20429;-45
2023/02/28 11:49:46;;;;;;;20.43;19.03;;;14.00;32.60;;;;;;4938642;28;20476;-46
2023/02/28 11:52:29;;;;;;;20.57;19.17;;;14.30;29.30;;;;;;4938664;28;20475;-45
2023/02/28 11:55:09;;;;;;;20.63;19.20;;;13.40;31.20;;;;;;4938233;29;20507;-44
2023/02/28 11:57:54;;;;;;;19.80;18.50;;;12.90;32.50;;;;;;4938042;29;20413;-44
2023/02/28 12:00:38;;;;;;;21.40;19.80;;;13.40;33.60;;;;;;4938987;28;20480;-44
2023/02/28 12:03:47;;;;;;;20.33;18.83;;;13.70;32.40;;;;;;4938383;29;20539;-44
2023/02/28 12:06:32;;;;;;;19.57;18.17;;;14.30;31.40;;;;;;4972794;28;20922;-48
2023/02/28 12:09:13;;;;;;;20.40;19.00;;;14.70;30.20;;;;;;4939736;29;20555;-48
2023/02/28 12:11:38;;;;;;;21.60;20.10;;;15.50;29.30;;;;;;4941375;29;20506;-46
2023/02/28 12:14:41;;;;;;;21.27;19.87;;;15.60;27.50;;;;;;4941477;29;20500;-42
2023/02/28 12:17:55;;;;;;;20.30;18.90;;;16.10;28.90;;;;;;4941947;29;20182;-45
2023/02/28 12:20:27;;;;;;;21.63;20.07;;;15.80;29.30;;;;;;4952561;28;21002;-46
2023/02/28 12:23:24;;;;;;;20.97;19.57;;;15.70;28.40;;;;;;4941597;28;20919;-43
2023/02/28 12:26:13;;;;;;;20.50;19.00;;;15.80;27.50;;;;;;4941788;28;20439;-45
2023/02/28 12:28:53;;;;;;;22.00;20.33;;;15.80;28.90;;;;;;4941441;28;20534;-42
2023/02/28 12:31:35;;;;;;;21.00;19.60;;;15.80;27.70;;;;;;4941475;28;20811;-47
2023/02/28 12:34:06;;;;;;;20.63;19.33;;;15.80;27.80;;;;;;4940129;29;21173;-48
2023/02/28 12:36:34;;;;;;;22.50;20.90;;;16.10;27.30;;;;;;4941006;29;20707;-45
2023/02/28 12:39:27;;;;;;;22.03;20.53;;;16.10;26.60;;;;;;4940967;29;20448;-46
2023/02/28 12:42:02;;;;;;;20.50;19.07;;;16.10;27.70;;;;;;4948172;28;20607;-44
2023/02/28 12:44:27;;;;;;;20.50;19.20;;;15.80;28.20;;;;;;4940990;29;20420;-44
2023/02/28 12:46:58;;;;;;;21.07;19.57;;;15.60;28.40;;;;;;4941366;29;20427;-41
2023/02/28 12:49:32;;;;;;;20.77;19.13;;;15.20;28.00;;;;;;4940859;28;20213;-46
2023/02/28 12:52:00;;;;;;;22.67;21.27;;;15.10;28.20;;;;;;4941215;29;20428;-42
2023/02/28 12:54:52;;;;;;;22.53;21.00;;;15.00;26.90;;;;;;4940745;29;20429;-48